This is the latest recevied weather packets stored in our database for station/object IU0KRR-10. If no packets are shown the sender has not sent any weather packets the latest 10 day(s).
| Time | Temp. | Humidity | Pressure | Rain* | Wind** | Luminosity | Snow |
|---|---|---|---|---|---|---|---|
| 1777454793 | 17.22° C | 32% | 872.5 hPa | - | - | - | - |
| 1777453893 | 17.22° C | 31% | 872.5 hPa | - | - | - | - |
| 1777452993 | 16.67° C | 26% | 872.5 hPa | - | - | - | - |
| 1777452093 | 16.67° C | 26% | 872.5 hPa | - | - | - | - |
| 1777451193 | 17.22° C | 22% | 872.5 hPa | - | - | - | - |
| 1777450292 | 17.22° C | 26% | 872.5 hPa | - | - | - | - |
| 1777449392 | 17.22° C | 23% | 872.4 hPa | - | - | - | - |
| 1777448492 | 18.33° C | 24% | 872.2 hPa | - | - | - | - |
| 1777447592 | 22.78° C | 21% | 872.2 hPa | - | - | - | - |
| 1777446692 | 27.78° C | 16% | 873.4 hPa | - | - | - | - |
| 1777445791 | 27.22° C | 17% | 873.3 hPa | - | - | - | - |
| 1777445160 | 26.67° C | 18% | 873.3 hPa | - | - | - | - |
| 1777444891 | 26.67° C | 18% | 873.3 hPa | - | - | - | - |
| 1777443987 | 26.11° C | 18% | 873.3 hPa | - | - | - | - |
| 1777443087 | 25.56° C | 20% | 873.3 hPa | - | - | - | - |
| 1777442187 | 25° C | 20% | 873.2 hPa | - | - | - | - |
| 1777441287 | 24.44° C | 21% | 873.1 hPa | - | - | - | - |
| 1777440387 | 24.44° C | 21% | 873.1 hPa | - | - | - | - |
| 1777439487 | 24.44° C | 20% | 873.1 hPa | - | - | - | - |
| 1777438587 | 23.89° C | 21% | 873 hPa | - | - | - | - |
| 1777437686 | 23.89° C | 21% | 873 hPa | - | - | - | - |
| 1777436786 | 23.89° C | 21% | 872.7 hPa | - | - | - | - |
| 1777435886 | 23.89° C | 21% | 872.6 hPa | - | - | - | - |
| 1777434985 | 24.44° C | 21% | 872.7 hPa | - | - | - | - |
| 1777434084 | 24.44° C | 21% | 872.8 hPa | - | - | - | - |
* Rain since midnight (hover to see other rain measurements)
** Current wind speed in m/s (hover to see current wind gust speed)